createdAt,value
2019-04-23T00:00:03.466Z,100.00
2019-04-23T00:02:33.211Z,100.00
2019-04-23T00:05:08.264Z,100.00
2019-04-23T00:07:48.421Z,100.00
2019-04-23T00:10:25.986Z,100.00
2019-04-23T00:12:53.078Z,100.00
2019-04-23T00:15:45.419Z,100.00
2019-04-23T00:18:12.266Z,100.00
2019-04-23T00:20:42.379Z,100.00
2019-04-23T00:23:19.107Z,100.00
2019-04-23T00:28:36.195Z,100.00
2019-04-23T00:31:13.343Z,100.00
2019-04-23T00:33:44.446Z,100.00
2019-04-23T00:36:22.946Z,100.00
2019-04-23T00:38:50.048Z,100.00
2019-04-23T00:41:25.068Z,100.00
2019-04-23T00:44:01.867Z,100.00
2019-04-23T00:46:36.807Z,100.00
2019-04-23T00:49:12.102Z,100.00
2019-04-23T00:51:45.989Z,100.00
2019-04-23T00:54:17.763Z,100.00
2019-04-23T00:56:54.508Z,100.00
2019-04-23T00:59:33.143Z,100.00
2019-04-23T01:02:01.196Z,100.00
2019-04-23T01:04:39.698Z,100.00
2019-04-23T01:07:12.849Z,100.00
2019-04-23T01:09:53.447Z,100.00
2019-04-23T01:12:35.940Z,100.00
2019-04-23T01:14:55.632Z,100.00
2019-04-23T01:18:18.668Z,100.00
2019-04-23T01:20:08.118Z,100.00
2019-04-23T01:22:29.370Z,100.00
2019-04-23T01:25:24.665Z,100.00
2019-04-23T01:28:23.471Z,100.00
2019-04-23T01:33:34.099Z,100.00
2019-04-23T01:36:20.583Z,100.00
2019-04-23T01:38:41.814Z,100.00
2019-04-23T01:41:13.337Z,100.00
2019-04-23T01:43:47.728Z,100.00
2019-04-23T01:46:25.068Z,100.00
2019-04-23T01:48:58.652Z,100.00
2019-04-23T01:51:38.155Z,100.00
2019-04-23T01:54:06.537Z,100.00
2019-04-23T01:56:33.877Z,100.00
2019-04-23T02:04:22.903Z,100.00
2019-04-23T02:07:04.486Z,100.00
2019-04-23T02:09:37.223Z,100.00
2019-04-23T02:12:11.141Z,100.00
2019-04-23T02:14:43.339Z,100.00
2019-04-23T02:17:15.804Z,100.00
2019-04-23T02:19:51.351Z,100.00
2019-04-23T02:22:58.687Z,100.00
2019-04-23T02:25:39.648Z,100.00
2019-04-23T02:28:07.565Z,100.00
2019-04-23T02:31:12.596Z,100.00
2019-04-23T02:33:30.107Z,100.00
2019-04-23T02:38:31.844Z,100.00
2019-04-23T02:43:29.901Z,100.00
2019-04-23T02:48:52.464Z,100.00
2019-04-23T02:51:30.840Z,100.00
2019-04-23T03:02:47.868Z,100.00
2019-04-23T03:04:16.817Z,100.00
2019-04-23T03:06:50.049Z,100.00
2019-04-23T03:09:23.308Z,100.00
2019-04-23T03:12:08.242Z,100.00
2019-04-23T03:14:32.800Z,100.00
2019-04-23T03:17:10.746Z,100.00
2019-04-23T03:20:09.681Z,100.00
2019-04-23T03:25:40.133Z,100.00
2019-04-23T03:28:21.239Z,100.00
2019-04-23T03:32:31.824Z,100.00
2019-04-23T03:41:17.176Z,100.00
2019-04-23T03:54:21.796Z,100.00
2019-04-23T03:59:19.895Z,100.00
2019-04-23T04:02:03.434Z,100.00
2019-04-23T04:04:31.761Z,100.00
2019-04-23T04:07:01.226Z,100.00
2019-04-23T04:09:34.020Z,100.00
2019-04-23T04:12:07.719Z,100.00
2019-04-23T04:19:47.902Z,100.00
2019-04-23T04:22:32.901Z,100.00
2019-04-23T04:25:01.626Z,100.00
2019-04-23T04:27:38.415Z,100.00
2019-04-23T04:30:10.759Z,100.00
2019-04-23T04:35:22.379Z,100.00
2019-04-23T04:40:36.435Z,100.00
2019-04-23T04:45:42.476Z,100.00
2019-04-23T04:47:58.596Z,100.00
2019-04-23T04:50:46.933Z,100.00
2019-04-23T04:53:23.272Z,100.00
2019-04-23T05:03:29.689Z,100.00
2019-04-23T05:06:16.175Z,100.00
2019-04-23T05:08:48.149Z,100.00
2019-04-23T05:11:30.007Z,100.00
2019-04-23T05:16:29.267Z,100.00
2019-04-23T05:21:46.879Z,100.00
2019-04-23T05:24:16.344Z,100.00
2019-04-23T05:26:41.258Z,100.00
2019-04-23T05:29:20.058Z,100.00
2019-04-23T05:31:58.192Z,100.00
2019-04-23T05:34:35.721Z,100.00
2019-04-23T05:37:04.197Z,100.00
2019-04-23T05:39:52.144Z,100.00
2019-04-23T05:44:54.295Z,100.00
2019-04-23T05:47:27.836Z,100.00
2019-04-23T05:49:58.965Z,100.00
2019-04-23T05:52:41.334Z,100.00
2019-04-23T05:55:12.064Z,100.00
2019-04-23T05:57:38.624Z,100.00
2019-04-23T06:00:17.545Z,100.00
2019-04-23T06:02:57.289Z,100.00
2019-04-23T06:05:25.022Z,100.00
2019-04-23T06:08:05.620Z,100.00
2019-04-23T06:10:34.313Z,100.00
2019-04-23T06:13:12.328Z,100.00
2019-04-23T06:15:43.805Z,100.00
2019-04-23T06:18:24.517Z,100.00
2019-04-23T06:20:55.578Z,100.00
2019-04-23T06:28:35.154Z,100.00
2019-04-23T06:31:20.533Z,100.00
2019-04-23T06:33:48.465Z,100.00
2019-04-23T06:36:39.935Z,100.00
2019-04-23T06:41:30.870Z,100.00
2019-04-23T06:46:56.772Z,98.36
2019-04-23T06:49:37.297Z,94.50
2019-04-23T06:52:15.196Z,94.25
2019-04-23T06:54:42.553Z,94.79
2019-04-23T07:00:00.593Z,90.61
2019-04-23T07:02:27.279Z,86.86
2019-04-23T07:10:11.423Z,83.69
2019-04-23T07:12:47.201Z,86.22
2019-04-23T07:15:32.132Z,86.22
2019-04-23T07:17:47.787Z,82.51
2019-04-23T07:20:28.608Z,82.51
2019-04-23T07:23:10.622Z,78.91
2019-04-23T07:25:34.650Z,78.41
2019-04-23T07:28:14.938Z,79.21
2019-04-23T07:30:39.884Z,72.66
2019-04-23T07:33:18.670Z,76.19
2019-04-23T07:35:52.036Z,76.19
2019-04-23T07:39:09.811Z,76.21
2019-04-23T07:44:35.500Z,71.56
2019-04-23T07:50:09.810Z,66.46
2019-04-23T07:55:21.691Z,69.38
2019-04-23T07:57:43.290Z,71.41
2019-04-23T08:00:18.167Z,72.29
2019-04-23T08:02:57.859Z,73.26
2019-04-23T08:05:26.412Z,71.60
2019-04-23T08:08:00.243Z,70.03
2019-04-23T08:10:35.733Z,70.03
2019-04-23T08:15:51.954Z,69.29
2019-04-23T08:18:23.275Z,74.26
2019-04-23T08:20:54.048Z,78.73
2019-04-23T08:24:01.646Z,72.87
2019-04-23T08:27:08.281Z,75.43
2019-04-23T08:29:30.574Z,76.64
2019-04-23T08:32:15.001Z,76.44
2019-04-23T08:39:57.100Z,79.08
2019-04-23T08:42:46.887Z,70.26
2019-04-23T08:45:28.530Z,69.48
2019-04-23T08:48:17.317Z,70.92
2019-04-23T08:50:50.684Z,70.88
2019-04-23T08:53:35.737Z,67.83
2019-04-23T08:56:15.102Z,71.49
2019-04-23T09:01:08.939Z,72.34
2019-04-23T09:03:39.150Z,63.35
2019-04-23T09:06:18.799Z,76.64
2019-04-23T09:08:49.523Z,73.87
2019-04-23T09:11:41.822Z,67.63
2019-04-23T09:16:46.883Z,66.09
2019-04-23T09:19:16.025Z,67.57
2019-04-23T09:21:53.626Z,72.16
2019-04-23T09:24:23.016Z,66.81
2019-04-23T09:27:03.922Z,65.78
2019-04-23T09:29:41.155Z,65.94
2019-04-23T09:32:23.916Z,62.37
2019-04-23T09:34:58.679Z,65.50
2019-04-23T09:37:47.196Z,63.64
2019-04-23T09:41:11.566Z,61.70
2019-04-23T09:43:40.298Z,62.78
2019-04-23T09:46:27.329Z,59.98
2019-04-23T09:54:09.754Z,55.61
2019-04-23T09:56:42.800Z,59.56
2019-04-23T10:01:40.928Z,58.66
2019-04-23T10:04:08.727Z,58.84
2019-04-23T10:06:33.373Z,59.79
2019-04-23T10:09:10.015Z,57.78
2019-04-23T10:11:41.069Z,62.98
2019-04-23T10:14:14.674Z,66.80
2019-04-23T10:16:47.524Z,60.22
2019-04-23T10:19:22.255Z,58.46
2019-04-23T10:21:55.667Z,64.13
2019-04-23T10:24:28.798Z,54.65
2019-04-23T10:27:02.068Z,57.71
2019-04-23T10:29:38.440Z,53.64
2019-04-23T10:32:11.770Z,56.14
2019-04-23T10:34:54.232Z,54.59
2019-04-23T10:37:30.453Z,54.89
2019-04-23T10:39:56.680Z,54.06
2019-04-23T10:42:28.981Z,57.27
2019-04-23T10:45:30.299Z,57.16
2019-04-23T10:48:49.667Z,53.69
2019-04-23T10:51:31.517Z,53.73
2019-04-23T10:54:16.080Z,54.72
2019-04-23T10:57:02.118Z,57.54
2019-04-23T10:59:35.057Z,61.18
2019-04-23T11:02:29.042Z,59.62
2019-04-23T11:07:28.633Z,59.04
2019-04-23T11:10:17.406Z,53.99
2019-04-23T11:13:10.638Z,57.17
2019-04-23T11:15:55.784Z,61.68
2019-04-23T11:18:08.820Z,56.57
2019-04-23T11:21:09.325Z,58.52
2019-04-23T11:23:29.097Z,56.25
2019-04-23T11:26:06.684Z,56.45
2019-04-23T11:28:37.760Z,52.52
2019-04-23T11:31:31.250Z,52.43
2019-04-23T11:34:01.093Z,50.19
2019-04-23T11:36:49.941Z,52.59
2019-04-23T11:39:05.370Z,48.77
2019-04-23T11:41:53.057Z,49.81
2019-04-23T11:44:23.685Z,47.15
2019-04-23T11:52:23.476Z,46.79
2019-04-23T11:54:38.954Z,45.91
2019-04-23T12:02:40.215Z,46.17
2019-04-23T12:05:37.900Z,42.57
2019-04-23T12:08:36.728Z,47.93
2019-04-23T12:14:24.273Z,45.33
2019-04-23T12:20:02.974Z,43.85
2019-04-23T12:22:22.229Z,45.24
2019-04-23T12:25:06.546Z,47.38
2019-04-23T12:27:31.144Z,46.14
2019-04-23T12:30:10.282Z,47.58
2019-04-23T12:32:47.967Z,49.67
2019-04-23T12:35:21.451Z,49.86
2019-04-23T12:40:49.254Z,49.38
2019-04-23T12:45:43.165Z,46.21
2019-04-23T12:48:36.794Z,49.70
2019-04-23T12:53:38.342Z,49.80
2019-04-23T12:56:02.481Z,46.60
2019-04-23T12:58:32.228Z,47.63
2019-04-23T13:01:25.688Z,51.65
2019-04-23T13:03:45.999Z,49.87
2019-04-23T13:06:20.734Z,48.90
2019-04-23T13:09:19.548Z,51.11
2019-04-23T13:11:40.778Z,50.99
2019-04-23T13:14:17.382Z,51.55
2019-04-23T13:16:58.986Z,52.73
2019-04-23T13:19:33.051Z,49.24
2019-04-23T13:24:50.111Z,56.33
2019-04-23T13:27:32.195Z,57.12
2019-04-23T13:30:02.061Z,57.84
2019-04-23T13:32:36.042Z,57.37
2019-04-23T13:35:19.892Z,59.96
2019-04-23T13:37:42.868Z,60.55
2019-04-23T13:40:17.600Z,59.85
2019-04-23T13:45:49.748Z,59.56
2019-04-23T13:48:00.665Z,56.63
2019-04-23T13:55:37.907Z,59.88
2019-04-23T13:58:15.210Z,63.70
2019-04-23T14:00:55.752Z,61.74
2019-04-23T14:03:30.710Z,64.66
2019-04-23T14:08:55.255Z,63.71
2019-04-23T14:11:23.255Z,61.27
2019-04-23T14:13:55.067Z,63.35
2019-04-23T14:19:02.486Z,60.63
2019-04-23T14:26:41.660Z,61.29
2019-04-23T14:29:23.201Z,62.87
2019-04-23T14:31:57.501Z,61.13
2019-04-23T14:34:27.219Z,62.91
2019-04-23T14:39:41.027Z,60.39
2019-04-23T14:42:35.190Z,62.02
2019-04-23T14:45:23.203Z,58.71
2019-04-23T14:47:55.078Z,58.87
2019-04-23T14:50:34.547Z,61.15
2019-04-23T14:53:06.883Z,60.61
2019-04-23T14:58:12.578Z,68.04
2019-04-23T15:00:43.612Z,68.99
2019-04-23T15:03:25.237Z,71.28
2019-04-23T15:05:56.374Z,70.58
2019-04-23T15:11:17.133Z,70.51
2019-04-23T15:29:02.918Z,78.16
2019-04-23T15:31:57.217Z,78.91
2019-04-23T15:34:25.795Z,81.32
2019-04-23T15:38:14.603Z,84.63
2019-04-23T15:44:52.876Z,85.42
2019-04-23T15:47:26.485Z,84.29
2019-04-23T15:50:03.201Z,92.63
2019-04-23T15:52:37.523Z,98.92
2019-04-23T15:55:01.619Z,100.00
2019-04-23T16:00:13.051Z,100.00
2019-04-23T16:02:20.053Z,100.00
2019-04-23T16:04:53.400Z,100.00
2019-04-23T16:07:41.368Z,100.00
2019-04-23T16:13:02.342Z,100.00
2019-04-23T16:15:35.495Z,100.00
2019-04-23T16:18:28.190Z,100.00
2019-04-23T16:21:03.726Z,100.00
2019-04-23T16:23:26.440Z,100.00
2019-04-23T16:26:09.471Z,100.00
2019-04-23T16:29:00.295Z,100.00
2019-04-23T16:31:26.470Z,100.00
2019-04-23T16:34:08.638Z,100.00
2019-04-23T16:36:32.490Z,100.00
2019-04-23T16:39:06.192Z,100.00
2019-04-23T16:41:46.667Z,100.00
2019-04-23T16:47:32.867Z,100.00
2019-04-23T16:49:46.091Z,100.00
2019-04-23T16:52:17.714Z,100.00
2019-04-23T16:54:58.332Z,100.00
2019-04-23T17:00:06.695Z,100.00
2019-04-23T17:02:26.120Z,100.00
2019-04-23T17:05:02.731Z,100.00
2019-04-23T17:07:25.603Z,100.00
2019-04-23T17:12:33.843Z,100.00
2019-04-23T17:15:21.810Z,100.00
2019-04-23T17:17:49.486Z,100.00
2019-04-23T17:20:28.925Z,100.00
2019-04-23T17:22:56.611Z,100.00
2019-04-23T17:25:25.889Z,100.00
2019-04-23T17:28:12.712Z,100.00
2019-04-23T17:33:33.201Z,100.00
2019-04-23T17:36:21.080Z,100.00
2019-04-23T17:38:55.284Z,100.00
2019-04-23T17:41:31.632Z,100.00
2019-04-23T17:44:12.572Z,100.00
2019-04-23T17:46:38.592Z,100.00
2019-04-23T17:49:10.794Z,100.00
2019-04-23T17:51:44.382Z,100.00
2019-04-23T17:57:13.118Z,100.00
2019-04-23T17:59:27.895Z,100.00
2019-04-23T18:02:27.327Z,100.00
2019-04-23T18:04:38.741Z,100.00
2019-04-23T18:07:05.385Z,100.00
2019-04-23T18:09:51.663Z,100.00
2019-04-23T18:12:28.941Z,100.00
2019-04-23T18:14:48.330Z,100.00
2019-04-23T18:17:35.580Z,100.00
2019-04-23T18:20:13.412Z,100.00
2019-04-23T18:22:48.808Z,100.00
2019-04-23T18:25:16.582Z,100.00
2019-04-23T18:27:51.260Z,100.00
2019-04-23T18:30:49.460Z,100.00
2019-04-23T18:35:58.085Z,100.00
2019-04-23T18:38:43.763Z,100.00
2019-04-23T18:43:48.318Z,100.00
2019-04-23T18:46:25.439Z,100.00
2019-04-23T18:48:49.759Z,100.00
2019-04-23T18:51:27.092Z,100.00
2019-04-23T18:53:52.656Z,100.00
2019-04-23T18:59:11.019Z,100.00
2019-04-23T19:02:30.986Z,100.00
2019-04-23T19:05:07.268Z,100.00
2019-04-23T19:08:01.433Z,100.00
2019-04-23T19:11:04.969Z,100.00
2019-04-23T19:13:39.839Z,100.00
2019-04-23T19:16:08.087Z,100.00
2019-04-23T19:18:52.641Z,100.00
2019-04-23T19:21:36.291Z,100.00
2019-04-23T19:23:51.006Z,100.00
2019-04-23T19:26:45.840Z,100.00
2019-04-23T19:29:00.436Z,100.00
2019-04-23T19:39:46.996Z,100.00
2019-04-23T19:44:41.272Z,100.00
2019-04-23T19:47:16.961Z,100.00
2019-04-23T19:49:44.802Z,100.00
2019-04-23T19:52:13.835Z,100.00
2019-04-23T19:57:42.282Z,100.00
2019-04-23T19:59:58.274Z,100.00
2019-04-23T20:02:55.451Z,100.00
2019-04-23T20:04:59.524Z,100.00
2019-04-23T20:07:56.595Z,100.00
2019-04-23T20:10:13.860Z,100.00
2019-04-23T20:12:44.814Z,100.00
2019-04-23T20:15:30.486Z,100.00
2019-04-23T20:17:54.131Z,100.00
2019-04-23T20:20:35.288Z,100.00
2019-04-23T20:23:11.865Z,100.00
2019-04-23T20:28:55.078Z,100.00
2019-04-23T20:32:05.522Z,100.00
2019-04-23T20:34:18.913Z,100.00
2019-04-23T20:36:38.507Z,100.00
2019-04-23T20:39:09.290Z,100.00
2019-04-23T20:47:10.251Z,100.00
2019-04-23T20:49:48.033Z,100.00
2019-04-23T20:57:48.455Z,100.00
2019-04-23T21:00:12.308Z,100.00
2019-04-23T21:03:25.399Z,100.00
2019-04-23T21:05:41.221Z,100.00
2019-04-23T21:08:30.367Z,100.00
2019-04-23T21:10:51.049Z,100.00
2019-04-23T21:13:43.347Z,100.00
2019-04-23T21:15:57.904Z,100.00
2019-04-23T21:21:06.677Z,100.00
2019-04-23T21:23:38.380Z,100.00
2019-04-23T21:26:05.608Z,100.00
2019-04-23T21:28:50.703Z,100.00
2019-04-23T21:31:26.661Z,100.00
2019-04-23T21:34:04.202Z,100.00
2019-04-23T21:36:40.343Z,100.00
2019-04-23T21:39:34.586Z,100.00
2019-04-23T21:42:14.501Z,100.00
2019-04-23T21:44:40.432Z,100.00
2019-04-23T21:47:09.115Z,100.00
2019-04-23T21:50:04.697Z,100.00
2019-04-23T21:52:18.355Z,100.00
2019-04-23T21:57:35.393Z,100.00
2019-04-23T21:59:59.345Z,100.00
2019-04-23T22:02:49.223Z,100.00
2019-04-23T22:05:17.471Z,100.00
2019-04-23T22:07:51.571Z,100.00
2019-04-23T22:10:20.492Z,100.00
2019-04-23T22:13:02.621Z,100.00
2019-04-23T22:15:39.368Z,100.00
2019-04-23T22:17:59.859Z,100.00
2019-04-23T22:20:44.086Z,100.00
2019-04-23T22:25:48.663Z,100.00
2019-04-23T22:28:18.063Z,100.00
2019-04-23T22:31:01.337Z,100.00
2019-04-23T22:33:25.248Z,100.00
2019-04-23T22:38:29.433Z,100.00
2019-04-23T22:41:04.797Z,100.00
2019-04-23T22:43:43.036Z,100.00
2019-04-23T22:46:20.697Z,100.00
2019-04-23T22:49:07.152Z,100.00
2019-04-23T22:54:05.438Z,100.00
2019-04-23T22:56:43.968Z,100.00
2019-04-23T23:04:31.391Z,100.00
2019-04-23T23:07:23.568Z,100.00
2019-04-23T23:09:44.010Z,100.00
2019-04-23T23:12:16.731Z,100.00
2019-04-23T23:14:54.788Z,100.00
2019-04-23T23:17:24.297Z,100.00
2019-04-23T23:20:16.067Z,100.00
2019-04-23T23:22:51.757Z,100.00
2019-04-23T23:25:19.093Z,100.00
2019-04-23T23:27:50.104Z,100.00
2019-04-23T23:30:19.609Z,100.00
2019-04-23T23:33:11.527Z,100.00
2019-04-23T23:35:54.033Z,100.00
2019-04-23T23:41:12.925Z,100.00
2019-04-23T23:44:06.060Z,100.00
2019-04-23T23:48:40.690Z,100.00
2019-04-23T23:53:58.584Z,100.00
2019-04-23T23:56:19.345Z,100.00
2019-04-23T23:59:03.852Z,100.00
